sensor_id;sensor_type;location;lat;lon;timestamp;P1;durP1;ratioP1;P2;durP2;ratioP2
46110;SDS011;31849;55.992;37.252;2023-02-02T00:02:30;28.52;;;14.00;;
46110;SDS011;31849;55.992;37.252;2023-02-02T00:12:36;27.40;;;12.93;;
46110;SDS011;31849;55.992;37.252;2023-02-02T00:17:41;25.48;;;13.25;;
46110;SDS011;31849;55.992;37.252;2023-02-02T00:22:45;25.50;;;14.30;;
46110;SDS011;31849;55.992;37.252;2023-02-02T00:27:48;25.45;;;13.50;;
46110;SDS011;31849;55.992;37.252;2023-02-02T00:32:53;28.73;;;13.05;;
46110;SDS011;31849;55.992;37.252;2023-02-02T00:37:58;25.42;;;13.05;;
46110;SDS011;31849;55.992;37.252;2023-02-02T00:43:02;23.83;;;12.73;;
46110;SDS011;31849;55.992;37.252;2023-02-02T00:48:07;20.25;;;10.52;;
46110;SDS011;31849;55.992;37.252;2023-02-02T00:53:11;18.73;;;10.00;;
46110;SDS011;31849;55.992;37.252;2023-02-02T00:58:14;20.50;;;11.23;;
46110;SDS011;31849;55.992;37.252;2023-02-02T01:03:19;19.70;;;10.00;;
46110;SDS011;31849;55.992;37.252;2023-02-02T01:13:26;15.32;;;8.30;;
46110;SDS011;31849;55.992;37.252;2023-02-02T01:18:31;17.63;;;8.63;;
46110;SDS011;31849;55.992;37.252;2023-02-02T01:23:35;14.57;;;8.00;;
46110;SDS011;31849;55.992;37.252;2023-02-02T01:28:39;17.85;;;8.90;;
46110;SDS011;31849;55.992;37.252;2023-02-02T01:33:45;16.30;;;8.35;;
46110;SDS011;31849;55.992;37.252;2023-02-02T01:38:49;15.65;;;8.40;;
46110;SDS011;31849;55.992;37.252;2023-02-02T01:43:54;20.35;;;9.40;;
46110;SDS011;31849;55.992;37.252;2023-02-02T01:49:02;19.20;;;9.85;;
46110;SDS011;31849;55.992;37.252;2023-02-02T01:54:11;19.20;;;9.82;;
46110;SDS011;31849;55.992;37.252;2023-02-02T01:59:17;22.98;;;12.13;;
46110;SDS011;31849;55.992;37.252;2023-02-02T02:04:23;24.20;;;12.77;;
46110;SDS011;31849;55.992;37.252;2023-02-02T02:09:29;26.25;;;13.38;;
46110;SDS011;31849;55.992;37.252;2023-02-02T02:14:32;28.98;;;13.20;;
46110;SDS011;31849;55.992;37.252;2023-02-02T02:20:03;26.30;;;12.48;;
46110;SDS011;31849;55.992;37.252;2023-02-02T02:26:00;28.27;;;14.30;;
46110;SDS011;31849;55.992;37.252;2023-02-02T02:37:08;23.50;;;12.07;;
46110;SDS011;31849;55.992;37.252;2023-02-02T02:42:16;25.35;;;12.45;;
46110;SDS011;31849;55.992;37.252;2023-02-02T02:47:24;25.05;;;12.98;;
46110;SDS011;31849;55.992;37.252;2023-02-02T03:03:06;24.35;;;12.43;;
46110;SDS011;31849;55.992;37.252;2023-02-02T03:08:16;27.10;;;13.60;;
46110;SDS011;31849;55.992;37.252;2023-02-02T03:13:26;22.92;;;11.82;;
46110;SDS011;31849;55.992;37.252;2023-02-02T03:18:32;26.90;;;13.50;;
46110;SDS011;31849;55.992;37.252;2023-02-02T03:23:36;24.48;;;11.65;;
46110;SDS011;31849;55.992;37.252;2023-02-02T03:28:40;25.75;;;12.88;;
46110;SDS011;31849;55.992;37.252;2023-02-02T03:33:45;24.35;;;11.85;;
46110;SDS011;31849;55.992;37.252;2023-02-02T03:43:52;23.70;;;11.68;;
46110;SDS011;31849;55.992;37.252;2023-02-02T03:48:56;24.33;;;11.45;;
46110;SDS011;31849;55.992;37.252;2023-02-02T03:59:03;24.80;;;11.95;;
46110;SDS011;31849;55.992;37.252;2023-02-02T04:04:08;25.27;;;12.27;;
46110;SDS011;31849;55.992;37.252;2023-02-02T04:09:12;26.25;;;13.13;;
46110;SDS011;31849;55.992;37.252;2023-02-02T04:14:15;24.25;;;11.82;;
46110;SDS011;31849;55.992;37.252;2023-02-02T04:19:20;27.60;;;14.35;;
46110;SDS011;31849;55.992;37.252;2023-02-02T04:24:23;25.67;;;13.18;;
46110;SDS011;31849;55.992;37.252;2023-02-02T04:29:27;25.38;;;12.35;;
46110;SDS011;31849;55.992;37.252;2023-02-02T04:34:32;24.60;;;12.73;;
46110;SDS011;31849;55.992;37.252;2023-02-02T04:44:38;26.45;;;12.27;;
46110;SDS011;31849;55.992;37.252;2023-02-02T04:49:43;25.73;;;12.65;;
46110;SDS011;31849;55.992;37.252;2023-02-02T04:59:50;25.50;;;12.13;;
46110;SDS011;31849;55.992;37.252;2023-02-02T05:04:55;23.65;;;12.45;;
46110;SDS011;31849;55.992;37.252;2023-02-02T05:15:02;24.70;;;12.27;;
46110;SDS011;31849;55.992;37.252;2023-02-02T05:20:08;26.27;;;12.70;;
46110;SDS011;31849;55.992;37.252;2023-02-02T05:25:12;24.27;;;12.88;;
46110;SDS011;31849;55.992;37.252;2023-02-02T05:30:16;24.20;;;11.18;;
46110;SDS011;31849;55.992;37.252;2023-02-02T05:35:21;25.45;;;12.88;;
46110;SDS011;31849;55.992;37.252;2023-02-02T05:40:25;23.77;;;12.75;;
46110;SDS011;31849;55.992;37.252;2023-02-02T05:45:29;25.45;;;11.77;;
46110;SDS011;31849;55.992;37.252;2023-02-02T05:50:35;21.73;;;11.18;;
46110;SDS011;31849;55.992;37.252;2023-02-02T05:55:38;26.10;;;13.95;;
46110;SDS011;31849;55.992;37.252;2023-02-02T06:00:41;25.40;;;11.93;;
46110;SDS011;31849;55.992;37.252;2023-02-02T06:05:46;25.52;;;12.68;;
46110;SDS011;31849;55.992;37.252;2023-02-02T06:15:53;29.73;;;14.02;;
46110;SDS011;31849;55.992;37.252;2023-02-02T06:20:58;29.27;;;14.25;;
46110;SDS011;31849;55.992;37.252;2023-02-02T06:26:02;27.77;;;13.52;;
46110;SDS011;31849;55.992;37.252;2023-02-02T06:31:09;30.10;;;13.88;;
46110;SDS011;31849;55.992;37.252;2023-02-02T06:36:15;28.63;;;14.85;;
46110;SDS011;31849;55.992;37.252;2023-02-02T06:41:19;27.42;;;14.60;;
46110;SDS011;31849;55.992;37.252;2023-02-02T06:46:23;28.70;;;13.83;;
46110;SDS011;31849;55.992;37.252;2023-02-02T06:51:28;27.30;;;13.40;;
46110;SDS011;31849;55.992;37.252;2023-02-02T07:01:34;27.05;;;12.77;;
46110;SDS011;31849;55.992;37.252;2023-02-02T07:06:39;29.85;;;14.93;;
46110;SDS011;31849;55.992;37.252;2023-02-02T07:16:46;29.80;;;13.80;;
46110;SDS011;31849;55.992;37.252;2023-02-02T07:21:51;33.67;;;16.50;;
46110;SDS011;31849;55.992;37.252;2023-02-02T07:31:58;36.10;;;17.70;;
46110;SDS011;31849;55.992;37.252;2023-02-02T07:37:03;35.38;;;16.85;;
46110;SDS011;31849;55.992;37.252;2023-02-02T07:47:13;40.83;;;19.10;;
46110;SDS011;31849;55.992;37.252;2023-02-02T07:52:19;35.15;;;17.25;;
46110;SDS011;31849;55.992;37.252;2023-02-02T08:02:27;28.50;;;14.23;;
46110;SDS011;31849;55.992;37.252;2023-02-02T08:07:35;26.98;;;14.30;;
46110;SDS011;31849;55.992;37.252;2023-02-02T08:12:38;30.58;;;14.75;;
46110;SDS011;31849;55.992;37.252;2023-02-02T08:17:43;29.48;;;14.68;;
46110;SDS011;31849;55.992;37.252;2023-02-02T08:22:52;31.15;;;15.77;;
46110;SDS011;31849;55.992;37.252;2023-02-02T08:32:59;34.70;;;16.40;;
46110;SDS011;31849;55.992;37.252;2023-02-02T08:38:04;33.38;;;16.42;;
46110;SDS011;31849;55.992;37.252;2023-02-02T08:43:08;33.08;;;17.30;;
46110;SDS011;31849;55.992;37.252;2023-02-02T08:48:11;29.65;;;16.20;;
46110;SDS011;31849;55.992;37.252;2023-02-02T08:53:19;31.77;;;16.42;;
46110;SDS011;31849;55.992;37.252;2023-02-02T08:58:23;28.88;;;16.13;;
46110;SDS011;31849;55.992;37.252;2023-02-02T09:03:26;29.73;;;15.25;;
46110;SDS011;31849;55.992;37.252;2023-02-02T09:08:31;28.42;;;14.43;;
46110;SDS011;31849;55.992;37.252;2023-02-02T09:13:35;28.60;;;14.63;;
46110;SDS011;31849;55.992;37.252;2023-02-02T09:18:40;29.98;;;14.82;;
46110;SDS011;31849;55.992;37.252;2023-02-02T09:28:51;23.95;;;12.90;;
46110;SDS011;31849;55.992;37.252;2023-02-02T09:33:58;26.60;;;14.40;;
46110;SDS011;31849;55.992;37.252;2023-02-02T09:39:04;27.90;;;14.60;;
46110;SDS011;31849;55.992;37.252;2023-02-02T09:44:11;23.27;;;14.07;;
46110;SDS011;31849;55.992;37.252;2023-02-02T09:49:25;22.90;;;13.80;;
46110;SDS011;31849;55.992;37.252;2023-02-02T09:54:35;24.52;;;13.30;;
46110;SDS011;31849;55.992;37.252;2023-02-02T09:59:45;21.17;;;13.18;;
46110;SDS011;31849;55.992;37.252;2023-02-02T10:04:52;26.05;;;14.07;;
46110;SDS011;31849;55.992;37.252;2023-02-02T10:10:00;26.17;;;14.13;;
46110;SDS011;31849;55.992;37.252;2023-02-02T10:15:10;23.92;;;13.05;;
46110;SDS011;31849;55.992;37.252;2023-02-02T10:20:24;22.52;;;13.13;;
46110;SDS011;31849;55.992;37.252;2023-02-02T10:25:36;21.77;;;11.80;;
46110;SDS011;31849;55.992;37.252;2023-02-02T10:30:54;23.52;;;13.35;;
46110;SDS011;31849;55.992;37.252;2023-02-02T10:36:05;23.15;;;13.07;;
46110;SDS011;31849;55.992;37.252;2023-02-02T10:41:21;24.25;;;13.10;;
46110;SDS011;31849;55.992;37.252;2023-02-02T10:46:33;24.42;;;13.15;;
46110;SDS011;31849;55.992;37.252;2023-02-02T10:51:44;23.40;;;12.57;;
46110;SDS011;31849;55.992;37.252;2023-02-02T10:56:52;22.95;;;11.80;;
46110;SDS011;31849;55.992;37.252;2023-02-02T11:02:01;23.85;;;12.82;;
46110;SDS011;31849;55.992;37.252;2023-02-02T11:07:20;23.75;;;12.48;;
46110;SDS011;31849;55.992;37.252;2023-02-02T11:12:27;22.90;;;12.50;;
46110;SDS011;31849;55.992;37.252;2023-02-02T11:17:34;22.52;;;12.90;;
46110;SDS011;31849;55.992;37.252;2023-02-02T11:22:38;24.10;;;12.80;;
46110;SDS011;31849;55.992;37.252;2023-02-02T11:27:43;26.05;;;12.20;;
46110;SDS011;31849;55.992;37.252;2023-02-02T11:32:47;23.50;;;12.65;;
46110;SDS011;31849;55.992;37.252;2023-02-02T11:37:55;21.63;;;12.30;;
46110;SDS011;31849;55.992;37.252;2023-02-02T11:43:15;23.60;;;13.10;;
46110;SDS011;31849;55.992;37.252;2023-02-02T11:48:21;22.45;;;11.82;;
46110;SDS011;31849;55.992;37.252;2023-02-02T11:53:29;21.35;;;11.50;;
46110;SDS011;31849;55.992;37.252;2023-02-02T11:58:45;19.73;;;10.18;;
46110;SDS011;31849;55.992;37.252;2023-02-02T12:03:50;18.70;;;10.70;;
46110;SDS011;31849;55.992;37.252;2023-02-02T12:08:56;23.05;;;11.43;;
46110;SDS011;31849;55.992;37.252;2023-02-02T12:14:07;22.35;;;12.15;;
46110;SDS011;31849;55.992;37.252;2023-02-02T12:19:33;21.90;;;11.20;;
46110;SDS011;31849;55.992;37.252;2023-02-02T12:24:48;23.75;;;13.25;;
46110;SDS011;31849;55.992;37.252;2023-02-02T12:30:07;21.88;;;12.60;;
46110;SDS011;31849;55.992;37.252;2023-02-02T12:35:31;23.10;;;12.10;;
46110;SDS011;31849;55.992;37.252;2023-02-02T12:40:55;23.10;;;13.07;;
46110;SDS011;31849;55.992;37.252;2023-02-02T12:46:17;24.42;;;12.40;;
46110;SDS011;31849;55.992;37.252;2023-02-02T12:51:34;21.63;;;11.32;;
46110;SDS011;31849;55.992;37.252;2023-02-02T12:56:50;21.60;;;11.88;;
46110;SDS011;31849;55.992;37.252;2023-02-02T13:02:09;23.13;;;12.13;;
46110;SDS011;31849;55.992;37.252;2023-02-02T13:07:26;20.80;;;11.77;;
46110;SDS011;31849;55.992;37.252;2023-02-02T13:12:35;23.42;;;12.05;;
46110;SDS011;31849;55.992;37.252;2023-02-02T13:17:47;21.65;;;11.90;;
46110;SDS011;31849;55.992;37.252;2023-02-02T13:22:55;28.05;;;12.88;;
46110;SDS011;31849;55.992;37.252;2023-02-02T13:28:01;26.08;;;13.50;;
46110;SDS011;31849;55.992;37.252;2023-02-02T13:33:12;29.73;;;14.70;;
46110;SDS011;31849;55.992;37.252;2023-02-02T13:38:21;28.40;;;15.43;;
46110;SDS011;31849;55.992;37.252;2023-02-02T13:43:32;28.85;;;15.80;;
46110;SDS011;31849;55.992;37.252;2023-02-02T13:48:47;30.30;;;15.20;;
46110;SDS011;31849;55.992;37.252;2023-02-02T13:54:01;29.35;;;15.27;;
46110;SDS011;31849;55.992;37.252;2023-02-02T13:59:29;33.65;;;16.67;;
46110;SDS011;31849;55.992;37.252;2023-02-02T14:04:52;26.97;;;14.13;;
46110;SDS011;31849;55.992;37.252;2023-02-02T14:09:58;29.52;;;15.07;;
46110;SDS011;31849;55.992;37.252;2023-02-02T14:15:02;28.58;;;14.50;;
46110;SDS011;31849;55.992;37.252;2023-02-02T14:20:15;27.77;;;14.57;;
46110;SDS011;31849;55.992;37.252;2023-02-02T14:25:51;23.67;;;13.13;;
46110;SDS011;31849;55.992;37.252;2023-02-02T14:36:31;28.60;;;15.18;;
46110;SDS011;31849;55.992;37.252;2023-02-02T14:41:46;27.77;;;14.48;;
46110;SDS011;31849;55.992;37.252;2023-02-02T14:47:40;28.55;;;14.77;;
46110;SDS011;31849;55.992;37.252;2023-02-02T14:52:56;30.27;;;15.57;;
46110;SDS011;31849;55.992;37.252;2023-02-02T14:58:04;31.40;;;16.35;;
46110;SDS011;31849;55.992;37.252;2023-02-02T15:08:38;27.58;;;14.25;;
46110;SDS011;31849;55.992;37.252;2023-02-02T15:18:48;27.98;;;13.90;;
46110;SDS011;31849;55.992;37.252;2023-02-02T15:24:02;31.40;;;16.17;;
46110;SDS011;31849;55.992;37.252;2023-02-02T15:29:12;30.88;;;15.32;;
46110;SDS011;31849;55.992;37.252;2023-02-02T15:34:19;34.35;;;16.13;;
46110;SDS011;31849;55.992;37.252;2023-02-02T15:39:28;32.47;;;15.07;;
46110;SDS011;31849;55.992;37.252;2023-02-02T15:44:34;33.03;;;16.75;;
46110;SDS011;31849;55.992;37.252;2023-02-02T15:49:39;37.50;;;16.10;;
46110;SDS011;31849;55.992;37.252;2023-02-02T15:54:51;30.58;;;15.85;;
46110;SDS011;31849;55.992;37.252;2023-02-02T15:59:56;32.70;;;18.10;;
46110;SDS011;31849;55.992;37.252;2023-02-02T16:05:01;34.13;;;17.38;;
46110;SDS011;31849;55.992;37.252;2023-02-02T16:10:26;33.47;;;16.63;;
46110;SDS011;31849;55.992;37.252;2023-02-02T16:20:33;37.90;;;19.85;;
46110;SDS011;31849;55.992;37.252;2023-02-02T16:25:43;40.83;;;19.85;;
46110;SDS011;31849;55.992;37.252;2023-02-02T16:30:51;39.13;;;19.20;;
46110;SDS011;31849;55.992;37.252;2023-02-02T16:35:55;33.58;;;16.05;;
46110;SDS011;31849;55.992;37.252;2023-02-02T16:41:07;34.30;;;18.47;;
46110;SDS011;31849;55.992;37.252;2023-02-02T16:46:12;35.85;;;18.75;;
46110;SDS011;31849;55.992;37.252;2023-02-02T16:51:24;43.00;;;18.35;;
46110;SDS011;31849;55.992;37.252;2023-02-02T16:56:31;34.72;;;18.35;;
46110;SDS011;31849;55.992;37.252;2023-02-02T17:01:37;33.72;;;19.20;;
46110;SDS011;31849;55.992;37.252;2023-02-02T17:06:43;32.10;;;15.65;;
46110;SDS011;31849;55.992;37.252;2023-02-02T17:11:57;33.85;;;18.17;;
46110;SDS011;31849;55.992;37.252;2023-02-02T17:17:04;35.78;;;18.48;;
46110;SDS011;31849;55.992;37.252;2023-02-02T17:22:08;33.80;;;17.38;;
46110;SDS011;31849;55.992;37.252;2023-02-02T17:27:14;35.00;;;17.85;;
46110;SDS011;31849;55.992;37.252;2023-02-02T17:32:23;33.95;;;17.60;;
46110;SDS011;31849;55.992;37.252;2023-02-02T17:37:27;37.90;;;18.38;;
46110;SDS011;31849;55.992;37.252;2023-02-02T17:42:32;32.45;;;17.38;;
46110;SDS011;31849;55.992;37.252;2023-02-02T17:47:36;31.85;;;16.65;;
46110;SDS011;31849;55.992;37.252;2023-02-02T17:52:40;31.77;;;15.87;;
46110;SDS011;31849;55.992;37.252;2023-02-02T17:57:45;32.25;;;17.20;;
46110;SDS011;31849;55.992;37.252;2023-02-02T18:02:49;32.15;;;17.17;;
46110;SDS011;31849;55.992;37.252;2023-02-02T18:07:57;29.63;;;15.60;;
46110;SDS011;31849;55.992;37.252;2023-02-02T18:13:02;31.13;;;16.27;;
46110;SDS011;31849;55.992;37.252;2023-02-02T18:18:05;29.88;;;15.15;;
46110;SDS011;31849;55.992;37.252;2023-02-02T18:23:09;31.60;;;15.75;;
46110;SDS011;31849;55.992;37.252;2023-02-02T18:28:14;27.58;;;16.15;;
46110;SDS011;31849;55.992;37.252;2023-02-02T18:33:18;36.53;;;18.85;;
46110;SDS011;31849;55.992;37.252;2023-02-02T18:38:24;34.30;;;16.85;;
46110;SDS011;31849;55.992;37.252;2023-02-02T18:43:28;30.77;;;15.73;;
46110;SDS011;31849;55.992;37.252;2023-02-02T18:53:35;34.25;;;18.02;;
46110;SDS011;31849;55.992;37.252;2023-02-02T18:58:40;33.00;;;17.63;;
46110;SDS011;31849;55.992;37.252;2023-02-02T19:03:46;32.33;;;16.27;;
46110;SDS011;31849;55.992;37.252;2023-02-02T19:08:50;34.92;;;16.70;;
46110;SDS011;31849;55.992;37.252;2023-02-02T19:13:55;34.85;;;19.10;;
46110;SDS011;31849;55.992;37.252;2023-02-02T19:18:59;38.70;;;20.23;;
46110;SDS011;31849;55.992;37.252;2023-02-02T19:24:10;36.35;;;19.75;;
46110;SDS011;31849;55.992;37.252;2023-02-02T19:29:17;37.53;;;18.95;;
46110;SDS011;31849;55.992;37.252;2023-02-02T19:34:22;32.65;;;18.27;;
46110;SDS011;31849;55.992;37.252;2023-02-02T19:39:28;39.83;;;20.63;;
46110;SDS011;31849;55.992;37.252;2023-02-02T19:44:34;35.10;;;16.38;;
46110;SDS011;31849;55.992;37.252;2023-02-02T19:49:39;35.30;;;19.10;;
46110;SDS011;31849;55.992;37.252;2023-02-02T19:55:08;35.58;;;18.10;;
46110;SDS011;31849;55.992;37.252;2023-02-02T20:00:22;34.00;;;17.75;;
46110;SDS011;31849;55.992;37.252;2023-02-02T20:05:28;32.45;;;17.30;;
46110;SDS011;31849;55.992;37.252;2023-02-02T20:10:36;33.72;;;17.67;;
46110;SDS011;31849;55.992;37.252;2023-02-02T20:15:45;35.97;;;18.60;;
46110;SDS011;31849;55.992;37.252;2023-02-02T20:20:50;34.42;;;17.75;;
46110;SDS011;31849;55.992;37.252;2023-02-02T20:25:56;34.97;;;17.70;;
46110;SDS011;31849;55.992;37.252;2023-02-02T20:31:02;36.10;;;19.20;;
46110;SDS011;31849;55.992;37.252;2023-02-02T20:36:14;31.98;;;16.65;;
46110;SDS011;31849;55.992;37.252;2023-02-02T20:41:38;26.75;;;14.35;;
46110;SDS011;31849;55.992;37.252;2023-02-02T20:46:43;33.45;;;16.13;;
46110;SDS011;31849;55.992;37.252;2023-02-02T20:56:49;37.92;;;17.27;;
46110;SDS011;31849;55.992;37.252;2023-02-02T21:01:56;29.67;;;15.15;;
46110;SDS011;31849;55.992;37.252;2023-02-02T21:07:00;38.55;;;20.52;;
46110;SDS011;31849;55.992;37.252;2023-02-02T21:12:03;38.47;;;19.40;;
46110;SDS011;31849;55.992;37.252;2023-02-02T21:17:25;37.65;;;19.55;;
46110;SDS011;31849;55.992;37.252;2023-02-02T21:22:29;37.97;;;19.60;;
46110;SDS011;31849;55.992;37.252;2023-02-02T21:27:32;37.25;;;19.15;;
46110;SDS011;31849;55.992;37.252;2023-02-02T21:32:37;38.85;;;18.95;;
46110;SDS011;31849;55.992;37.252;2023-02-02T21:37:41;36.97;;;18.80;;
46110;SDS011;31849;55.992;37.252;2023-02-02T21:42:47;33.97;;;16.80;;
46110;SDS011;31849;55.992;37.252;2023-02-02T21:47:53;38.05;;;18.88;;
46110;SDS011;31849;55.992;37.252;2023-02-02T21:53:09;37.97;;;17.48;;
46110;SDS011;31849;55.992;37.252;2023-02-02T21:58:22;37.45;;;19.42;;
46110;SDS011;31849;55.992;37.252;2023-02-02T22:03:30;38.33;;;19.60;;
46110;SDS011;31849;55.992;37.252;2023-02-02T22:08:36;32.05;;;17.98;;
46110;SDS011;31849;55.992;37.252;2023-02-02T22:13:39;38.67;;;20.17;;
46110;SDS011;31849;55.992;37.252;2023-02-02T22:18:44;41.47;;;20.55;;
46110;SDS011;31849;55.992;37.252;2023-02-02T22:23:48;41.40;;;20.15;;
46110;SDS011;31849;55.992;37.252;2023-02-02T22:28:51;38.95;;;20.05;;
46110;SDS011;31849;55.992;37.252;2023-02-02T22:33:56;36.45;;;18.98;;
46110;SDS011;31849;55.992;37.252;2023-02-02T22:44:03;40.72;;;19.50;;
46110;SDS011;31849;55.992;37.252;2023-02-02T22:49:08;42.73;;;21.23;;
46110;SDS011;31849;55.992;37.252;2023-02-02T22:54:12;39.38;;;20.98;;
46110;SDS011;31849;55.992;37.252;2023-02-02T22:59:15;42.55;;;22.23;;
46110;SDS011;31849;55.992;37.252;2023-02-02T23:04:20;39.83;;;21.00;;
46110;SDS011;31849;55.992;37.252;2023-02-02T23:14:27;38.60;;;20.13;;
46110;SDS011;31849;55.992;37.252;2023-02-02T23:19:32;39.20;;;19.48;;
46110;SDS011;31849;55.992;37.252;2023-02-02T23:24:35;39.92;;;21.90;;
46110;SDS011;31849;55.992;37.252;2023-02-02T23:29:39;41.10;;;20.30;;
46110;SDS011;31849;55.992;37.252;2023-02-02T23:39:48;43.47;;;21.40;;
46110;SDS011;31849;55.992;37.252;2023-02-02T23:44:52;41.47;;;21.55;;
46110;SDS011;31849;55.992;37.252;2023-02-02T23:49:56;42.78;;;19.42;;
